sensor_id;sensor_type;location;lat;lon;timestamp;P1;durP1;ratioP1;P2;durP2;ratioP2
19747;SDS011;10032;51.386;12.516;2023-08-12T00:01:47;3.22;;;1.90;;
19747;SDS011;10032;51.386;12.516;2023-08-12T00:04:12;3.35;;;2.30;;
19747;SDS011;10032;51.386;12.516;2023-08-12T00:06:40;2.72;;;2.20;;
19747;SDS011;10032;51.386;12.516;2023-08-12T00:09:06;2.53;;;2.20;;
19747;SDS011;10032;51.386;12.516;2023-08-12T00:11:34;7.07;;;2.83;;
19747;SDS011;10032;51.386;12.516;2023-08-12T00:14:00;2.42;;;2.22;;
19747;SDS011;10032;51.386;12.516;2023-08-12T00:16:25;5.65;;;2.20;;
19747;SDS011;10032;51.386;12.516;2023-08-12T00:18:50;5.45;;;2.10;;
19747;SDS011;10032;51.386;12.516;2023-08-12T00:21:16;2.40;;;2.20;;
19747;SDS011;10032;51.386;12.516;2023-08-12T00:23:41;2.72;;;2.50;;
19747;SDS011;10032;51.386;12.516;2023-08-12T00:26:08;2.22;;;1.98;;
19747;SDS011;10032;51.386;12.516;2023-08-12T00:28:33;2.70;;;2.25;;
19747;SDS011;10032;51.386;12.516;2023-08-12T00:30:59;2.28;;;2.08;;
19747;SDS011;10032;51.386;12.516;2023-08-12T00:33:25;9.25;;;2.58;;
19747;SDS011;10032;51.386;12.516;2023-08-12T00:35:50;2.10;;;1.77;;
19747;SDS011;10032;51.386;12.516;2023-08-12T00:38:15;3.03;;;2.25;;
19747;SDS011;10032;51.386;12.516;2023-08-12T00:40:41;2.92;;;2.20;;
19747;SDS011;10032;51.386;12.516;2023-08-12T00:43:06;2.67;;;2.30;;
19747;SDS011;10032;51.386;12.516;2023-08-12T00:45:32;5.05;;;2.95;;
19747;SDS011;10032;51.386;12.516;2023-08-12T00:47:58;3.75;;;2.53;;
19747;SDS011;10032;51.386;12.516;2023-08-12T00:50:24;3.83;;;2.90;;
19747;SDS011;10032;51.386;12.516;2023-08-12T00:52:50;2.38;;;2.17;;
19747;SDS011;10032;51.386;12.516;2023-08-12T00:55:16;6.35;;;2.70;;
19747;SDS011;10032;51.386;12.516;2023-08-12T00:57:42;2.45;;;2.17;;
19747;SDS011;10032;51.386;12.516;2023-08-12T01:00:09;3.13;;;2.72;;
19747;SDS011;10032;51.386;12.516;2023-08-12T01:02:35;2.72;;;2.20;;
19747;SDS011;10032;51.386;12.516;2023-08-12T01:05:00;3.83;;;2.83;;
19747;SDS011;10032;51.386;12.516;2023-08-12T01:07:25;2.13;;;2.00;;
19747;SDS011;10032;51.386;12.516;2023-08-12T01:09:51;7.45;;;2.60;;
19747;SDS011;10032;51.386;12.516;2023-08-12T01:12:18;4.60;;;2.63;;
19747;SDS011;10032;51.386;12.516;2023-08-12T01:15:06;2.72;;;2.22;;
19747;SDS011;10032;51.386;12.516;2023-08-12T01:17:34;4.45;;;2.63;;
19747;SDS011;10032;51.386;12.516;2023-08-12T01:20:02;9.80;;;2.95;;
19747;SDS011;10032;51.386;12.516;2023-08-12T01:22:37;3.95;;;2.63;;
19747;SDS011;10032;51.386;12.516;2023-08-12T01:25:07;9.85;;;2.78;;
19747;SDS011;10032;51.386;12.516;2023-08-12T01:27:34;3.83;;;2.60;;
19747;SDS011;10032;51.386;12.516;2023-08-12T01:30:01;2.90;;;2.70;;
19747;SDS011;10032;51.386;12.516;2023-08-12T01:37:44;2.63;;;2.42;;
19747;SDS011;10032;51.386;12.516;2023-08-12T01:40:10;3.13;;;2.60;;
19747;SDS011;10032;51.386;12.516;2023-08-12T01:42:38;4.38;;;2.65;;
19747;SDS011;10032;51.386;12.516;2023-08-12T01:45:05;6.45;;;3.00;;
19747;SDS011;10032;51.386;12.516;2023-08-12T01:47:31;2.63;;;2.38;;
19747;SDS011;10032;51.386;12.516;2023-08-12T01:49:57;2.45;;;2.25;;
19747;SDS011;10032;51.386;12.516;2023-08-12T01:52:23;2.88;;;2.67;;
19747;SDS011;10032;51.386;12.516;2023-08-12T01:54:48;3.85;;;2.92;;
19747;SDS011;10032;51.386;12.516;2023-08-12T01:57:14;2.83;;;2.50;;
19747;SDS011;10032;51.386;12.516;2023-08-12T01:59:39;4.90;;;2.92;;
19747;SDS011;10032;51.386;12.516;2023-08-12T02:02:05;6.75;;;2.70;;
19747;SDS011;10032;51.386;12.516;2023-08-12T02:04:30;2.92;;;2.50;;
19747;SDS011;10032;51.386;12.516;2023-08-12T02:06:56;8.45;;;2.75;;
19747;SDS011;10032;51.386;12.516;2023-08-12T02:09:22;3.38;;;2.63;;
19747;SDS011;10032;51.386;12.516;2023-08-12T02:11:48;3.33;;;2.67;;
19747;SDS011;10032;51.386;12.516;2023-08-12T02:14:14;3.65;;;3.05;;
19747;SDS011;10032;51.386;12.516;2023-08-12T02:16:39;5.07;;;2.92;;
19747;SDS011;10032;51.386;12.516;2023-08-12T02:19:05;4.65;;;3.10;;
19747;SDS011;10032;51.386;12.516;2023-08-12T02:21:30;5.30;;;3.00;;
19747;SDS011;10032;51.386;12.516;2023-08-12T02:23:56;2.83;;;2.60;;
19747;SDS011;10032;51.386;12.516;2023-08-12T02:26:21;3.78;;;2.72;;
19747;SDS011;10032;51.386;12.516;2023-08-12T02:28:47;3.88;;;2.60;;
19747;SDS011;10032;51.386;12.516;2023-08-12T02:31:12;3.53;;;2.90;;
19747;SDS011;10032;51.386;12.516;2023-08-12T02:33:37;4.35;;;3.28;;
19747;SDS011;10032;51.386;12.516;2023-08-12T02:36:03;3.22;;;2.92;;
19747;SDS011;10032;51.386;12.516;2023-08-12T02:38:29;3.30;;;2.92;;
19747;SDS011;10032;51.386;12.516;2023-08-12T02:40:54;2.90;;;2.70;;
19747;SDS011;10032;51.386;12.516;2023-08-12T02:43:20;5.30;;;3.92;;
19747;SDS011;10032;51.386;12.516;2023-08-12T02:45:46;3.58;;;3.28;;
19747;SDS011;10032;51.386;12.516;2023-08-12T02:48:11;2.80;;;2.60;;
19747;SDS011;10032;51.386;12.516;2023-08-12T02:50:37;3.38;;;3.08;;
19747;SDS011;10032;51.386;12.516;2023-08-12T02:53:04;5.57;;;3.25;;
19747;SDS011;10032;51.386;12.516;2023-08-12T02:55:30;4.55;;;3.33;;
19747;SDS011;10032;51.386;12.516;2023-08-12T02:57:57;5.63;;;3.03;;
19747;SDS011;10032;51.386;12.516;2023-08-12T03:00:22;3.33;;;3.03;;
19747;SDS011;10032;51.386;12.516;2023-08-12T03:02:48;5.95;;;3.17;;
19747;SDS011;10032;51.386;12.516;2023-08-12T03:05:13;4.90;;;3.20;;
19747;SDS011;10032;51.386;12.516;2023-08-12T03:07:39;3.65;;;3.35;;
19747;SDS011;10032;51.386;12.516;2023-08-12T03:10:04;3.92;;;3.08;;
19747;SDS011;10032;51.386;12.516;2023-08-12T03:12:30;7.93;;;3.63;;
19747;SDS011;10032;51.386;12.516;2023-08-12T03:14:56;5.05;;;3.58;;
19747;SDS011;10032;51.386;12.516;2023-08-12T03:17:21;3.88;;;3.30;;
19747;SDS011;10032;51.386;12.516;2023-08-12T03:19:47;3.35;;;3.05;;
19747;SDS011;10032;51.386;12.516;2023-08-12T03:22:12;3.83;;;3.28;;
19747;SDS011;10032;51.386;12.516;2023-08-12T03:24:37;2.95;;;2.65;;
19747;SDS011;10032;51.386;12.516;2023-08-12T03:27:03;4.03;;;3.42;;
19747;SDS011;10032;51.386;12.516;2023-08-12T03:29:28;5.40;;;3.17;;
19747;SDS011;10032;51.386;12.516;2023-08-12T03:31:54;4.47;;;3.55;;
19747;SDS011;10032;51.386;12.516;2023-08-12T03:34:19;3.75;;;3.45;;
19747;SDS011;10032;51.386;12.516;2023-08-12T03:36:44;3.47;;;3.13;;
19747;SDS011;10032;51.386;12.516;2023-08-12T03:39:13;3.30;;;3.00;;
19747;SDS011;10032;51.386;12.516;2023-08-12T03:41:39;3.55;;;3.00;;
19747;SDS011;10032;51.386;12.516;2023-08-12T03:44:04;3.70;;;2.95;;
19747;SDS011;10032;51.386;12.516;2023-08-12T03:46:30;3.05;;;2.80;;
19747;SDS011;10032;51.386;12.516;2023-08-12T03:48:55;3.65;;;3.30;;
19747;SDS011;10032;51.386;12.516;2023-08-12T03:51:20;3.33;;;3.00;;
19747;SDS011;10032;51.386;12.516;2023-08-12T03:53:47;3.70;;;3.40;;
19747;SDS011;10032;51.386;12.516;2023-08-12T03:56:12;3.55;;;3.13;;
19747;SDS011;10032;51.386;12.516;2023-08-12T03:58:40;6.00;;;3.40;;
19747;SDS011;10032;51.386;12.516;2023-08-12T04:01:06;4.18;;;3.47;;
19747;SDS011;10032;51.386;12.516;2023-08-12T04:03:31;3.35;;;3.15;;
19747;SDS011;10032;51.386;12.516;2023-08-12T04:05:56;3.45;;;3.15;;
19747;SDS011;10032;51.386;12.516;2023-08-12T04:08:22;3.67;;;3.38;;
19747;SDS011;10032;51.386;12.516;2023-08-12T04:10:48;5.10;;;3.70;;
19747;SDS011;10032;51.386;12.516;2023-08-12T04:13:14;4.38;;;3.08;;
19747;SDS011;10032;51.386;12.516;2023-08-12T04:15:40;3.60;;;3.30;;
19747;SDS011;10032;51.386;12.516;2023-08-12T04:18:06;4.38;;;2.90;;
19747;SDS011;10032;51.386;12.516;2023-08-12T04:20:32;2.50;;;2.30;;
19747;SDS011;10032;51.386;12.516;2023-08-12T04:22:57;3.97;;;3.20;;
19747;SDS011;10032;51.386;12.516;2023-08-12T04:25:23;4.20;;;3.05;;
19747;SDS011;10032;51.386;12.516;2023-08-12T04:27:49;3.70;;;3.13;;
19747;SDS011;10032;51.386;12.516;2023-08-12T04:30:15;3.40;;;3.10;;
19747;SDS011;10032;51.386;12.516;2023-08-12T04:32:41;3.30;;;3.00;;
19747;SDS011;10032;51.386;12.516;2023-08-12T04:35:07;4.25;;;3.85;;
19747;SDS011;10032;51.386;12.516;2023-08-12T04:37:33;3.50;;;3.10;;
19747;SDS011;10032;51.386;12.516;2023-08-12T04:39:58;4.13;;;3.60;;
19747;SDS011;10032;51.386;12.516;2023-08-12T04:42:24;3.55;;;2.83;;
19747;SDS011;10032;51.386;12.516;2023-08-12T04:44:49;5.70;;;2.78;;
19747;SDS011;10032;51.386;12.516;2023-08-12T04:47:15;3.42;;;3.00;;
19747;SDS011;10032;51.386;12.516;2023-08-12T04:49:40;3.47;;;2.78;;
19747;SDS011;10032;51.386;12.516;2023-08-12T04:52:06;4.82;;;3.03;;
19747;SDS011;10032;51.386;12.516;2023-08-12T04:54:31;3.20;;;2.90;;
19747;SDS011;10032;51.386;12.516;2023-08-12T04:56:57;3.35;;;3.00;;
19747;SDS011;10032;51.386;12.516;2023-08-12T04:59:24;3.05;;;2.75;;
19747;SDS011;10032;51.386;12.516;2023-08-12T05:01:49;3.42;;;3.13;;
19747;SDS011;10032;51.386;12.516;2023-08-12T05:04:15;3.20;;;2.83;;
19747;SDS011;10032;51.386;12.516;2023-08-12T05:06:40;3.47;;;2.88;;
19747;SDS011;10032;51.386;12.516;2023-08-12T05:09:06;4.25;;;3.17;;
19747;SDS011;10032;51.386;12.516;2023-08-12T05:11:31;3.30;;;3.00;;
19747;SDS011;10032;51.386;12.516;2023-08-12T05:13:56;3.80;;;2.83;;
19747;SDS011;10032;51.386;12.516;2023-08-12T05:16:22;3.80;;;3.33;;
19747;SDS011;10032;51.386;12.516;2023-08-12T05:18:47;3.13;;;2.80;;
19747;SDS011;10032;51.386;12.516;2023-08-12T05:21:12;3.03;;;2.72;;
19747;SDS011;10032;51.386;12.516;2023-08-12T05:23:38;3.47;;;2.97;;
19747;SDS011;10032;51.386;12.516;2023-08-12T05:26:03;3.17;;;2.88;;
19747;SDS011;10032;51.386;12.516;2023-08-12T05:28:29;3.05;;;2.80;;
19747;SDS011;10032;51.386;12.516;2023-08-12T05:30:54;3.10;;;2.80;;
19747;SDS011;10032;51.386;12.516;2023-08-12T05:33:20;3.70;;;3.20;;
19747;SDS011;10032;51.386;12.516;2023-08-12T05:35:49;3.05;;;2.83;;
19747;SDS011;10032;51.386;12.516;2023-08-12T05:38:15;3.33;;;2.97;;
19747;SDS011;10032;51.386;12.516;2023-08-12T05:40:41;3.00;;;2.70;;
19747;SDS011;10032;51.386;12.516;2023-08-12T05:43:06;3.35;;;3.05;;
19747;SDS011;10032;51.386;12.516;2023-08-12T05:45:32;5.70;;;2.92;;
19747;SDS011;10032;51.386;12.516;2023-08-12T05:47:57;3.42;;;2.65;;
19747;SDS011;10032;51.386;12.516;2023-08-12T05:50:22;2.90;;;2.70;;
19747;SDS011;10032;51.386;12.516;2023-08-12T05:52:48;3.60;;;3.28;;
19747;SDS011;10032;51.386;12.516;2023-08-12T05:55:13;3.28;;;2.70;;
19747;SDS011;10032;51.386;12.516;2023-08-12T05:57:39;3.35;;;3.05;;
19747;SDS011;10032;51.386;12.516;2023-08-12T06:00:04;2.90;;;2.70;;
19747;SDS011;10032;51.386;12.516;2023-08-12T06:02:30;2.80;;;2.60;;
19747;SDS011;10032;51.386;12.516;2023-08-12T06:04:56;5.00;;;3.15;;
19747;SDS011;10032;51.386;12.516;2023-08-12T06:07:22;2.88;;;2.65;;
19747;SDS011;10032;51.386;12.516;2023-08-12T06:09:48;3.45;;;3.08;;
19747;SDS011;10032;51.386;12.516;2023-08-12T06:12:14;2.90;;;2.70;;
19747;SDS011;10032;51.386;12.516;2023-08-12T06:14:40;3.75;;;2.85;;
19747;SDS011;10032;51.386;12.516;2023-08-12T06:17:05;3.40;;;2.88;;
19747;SDS011;10032;51.386;12.516;2023-08-12T06:19:31;3.05;;;2.75;;
19747;SDS011;10032;51.386;12.516;2023-08-12T06:21:57;2.80;;;2.60;;
19747;SDS011;10032;51.386;12.516;2023-08-12T06:24:22;4.20;;;2.95;;
19747;SDS011;10032;51.386;12.516;2023-08-12T06:26:47;3.92;;;3.30;;
19747;SDS011;10032;51.386;12.516;2023-08-12T06:29:13;3.33;;;3.03;;
19747;SDS011;10032;51.386;12.516;2023-08-12T06:31:38;4.32;;;2.70;;
19747;SDS011;10032;51.386;12.516;2023-08-12T06:34:04;2.78;;;2.53;;
19747;SDS011;10032;51.386;12.516;2023-08-12T06:36:29;3.05;;;2.75;;
19747;SDS011;10032;51.386;12.516;2023-08-12T06:38:55;2.85;;;2.65;;
19747;SDS011;10032;51.386;12.516;2023-08-12T06:41:20;3.22;;;2.95;;
19747;SDS011;10032;51.386;12.516;2023-08-12T06:43:45;2.63;;;2.42;;
19747;SDS011;10032;51.386;12.516;2023-08-12T06:46:11;3.00;;;2.72;;
19747;SDS011;10032;51.386;12.516;2023-08-12T06:48:36;3.03;;;2.65;;
19747;SDS011;10032;51.386;12.516;2023-08-12T06:51:01;4.45;;;2.65;;
19747;SDS011;10032;51.386;12.516;2023-08-12T06:53:32;6.20;;;3.13;;
19747;SDS011;10032;51.386;12.516;2023-08-12T06:55:57;3.10;;;2.80;;
19747;SDS011;10032;51.386;12.516;2023-08-12T06:58:22;2.75;;;2.55;;
19747;SDS011;10032;51.386;12.516;2023-08-12T07:00:48;3.20;;;2.80;;
19747;SDS011;10032;51.386;12.516;2023-08-12T07:03:13;2.63;;;2.42;;
19747;SDS011;10032;51.386;12.516;2023-08-12T07:05:38;3.42;;;2.53;;
19747;SDS011;10032;51.386;12.516;2023-08-12T07:08:04;3.20;;;3.00;;
19747;SDS011;10032;51.386;12.516;2023-08-12T07:10:29;3.33;;;2.70;;
19747;SDS011;10032;51.386;12.516;2023-08-12T07:12:55;2.95;;;2.75;;
19747;SDS011;10032;51.386;12.516;2023-08-12T07:15:20;3.38;;;2.70;;
19747;SDS011;10032;51.386;12.516;2023-08-12T07:17:46;3.00;;;2.80;;
19747;SDS011;10032;51.386;12.516;2023-08-12T07:20:11;2.70;;;2.50;;
19747;SDS011;10032;51.386;12.516;2023-08-12T07:22:36;3.40;;;2.83;;
19747;SDS011;10032;51.386;12.516;2023-08-12T07:25:02;2.95;;;2.70;;
19747;SDS011;10032;51.386;12.516;2023-08-12T07:27:27;2.97;;;2.67;;
19747;SDS011;10032;51.386;12.516;2023-08-12T07:29:53;2.92;;;2.67;;
19747;SDS011;10032;51.386;12.516;2023-08-12T07:32:18;3.03;;;2.70;;
19747;SDS011;10032;51.386;12.516;2023-08-12T07:34:44;2.80;;;2.60;;
19747;SDS011;10032;51.386;12.516;2023-08-12T07:37:09;3.22;;;2.90;;
19747;SDS011;10032;51.386;12.516;2023-08-12T07:39:35;3.05;;;2.85;;
19747;SDS011;10032;51.386;12.516;2023-08-12T07:42:00;3.10;;;2.80;;
19747;SDS011;10032;51.386;12.516;2023-08-12T07:44:26;3.03;;;2.80;;
19747;SDS011;10032;51.386;12.516;2023-08-12T07:46:51;2.88;;;2.67;;
19747;SDS011;10032;51.386;12.516;2023-08-12T07:49:16;3.45;;;2.80;;
19747;SDS011;10032;51.386;12.516;2023-08-12T07:51:42;2.80;;;2.60;;
19747;SDS011;10032;51.386;12.516;2023-08-12T07:54:07;3.28;;;2.53;;
19747;SDS011;10032;51.386;12.516;2023-08-12T07:56:33;3.40;;;3.05;;
19747;SDS011;10032;51.386;12.516;2023-08-12T07:58:58;3.20;;;2.55;;
19747;SDS011;10032;51.386;12.516;2023-08-12T08:01:23;3.30;;;3.00;;
19747;SDS011;10032;51.386;12.516;2023-08-12T08:03:49;3.20;;;2.88;;
19747;SDS011;10032;51.386;12.516;2023-08-12T08:06:14;5.28;;;3.00;;
19747;SDS011;10032;51.386;12.516;2023-08-12T08:08:40;2.80;;;2.60;;
19747;SDS011;10032;51.386;12.516;2023-08-12T08:11:05;4.40;;;2.67;;
19747;SDS011;10032;51.386;12.516;2023-08-12T08:13:31;7.65;;;3.05;;
19747;SDS011;10032;51.386;12.516;2023-08-12T08:15:56;3.33;;;3.03;;
19747;SDS011;10032;51.386;12.516;2023-08-12T08:18:22;4.05;;;3.40;;
19747;SDS011;10032;51.386;12.516;2023-08-12T08:20:47;3.53;;;2.90;;
19747;SDS011;10032;51.386;12.516;2023-08-12T08:23:13;3.03;;;2.78;;
19747;SDS011;10032;51.386;12.516;2023-08-12T08:25:38;3.72;;;2.80;;
19747;SDS011;10032;51.386;12.516;2023-08-12T08:28:04;2.80;;;2.60;;
19747;SDS011;10032;51.386;12.516;2023-08-12T08:30:29;3.20;;;2.90;;
19747;SDS011;10032;51.386;12.516;2023-08-12T08:32:55;2.95;;;2.65;;
19747;SDS011;10032;51.386;12.516;2023-08-12T08:35:20;3.85;;;2.95;;
19747;SDS011;10032;51.386;12.516;2023-08-12T08:37:45;2.72;;;2.47;;
19747;SDS011;10032;51.386;12.516;2023-08-12T08:40:11;5.18;;;2.33;;
19747;SDS011;10032;51.386;12.516;2023-08-12T08:42:37;3.90;;;3.40;;
19747;SDS011;10032;51.386;12.516;2023-08-12T08:45:03;3.30;;;3.00;;
19747;SDS011;10032;51.386;12.516;2023-08-12T08:47:32;3.20;;;2.90;;
19747;SDS011;10032;51.386;12.516;2023-08-12T08:49:58;3.47;;;2.90;;
19747;SDS011;10032;51.386;12.516;2023-08-12T08:52:25;4.75;;;3.13;;
19747;SDS011;10032;51.386;12.516;2023-08-12T08:54:51;3.22;;;3.00;;
19747;SDS011;10032;51.386;12.516;2023-08-12T08:57:17;2.88;;;2.67;;
19747;SDS011;10032;51.386;12.516;2023-08-12T08:59:46;3.83;;;2.67;;
19747;SDS011;10032;51.386;12.516;2023-08-12T09:02:13;3.10;;;2.72;;
19747;SDS011;10032;51.386;12.516;2023-08-12T09:04:42;3.67;;;2.85;;
19747;SDS011;10032;51.386;12.516;2023-08-12T09:07:09;3.08;;;2.63;;
19747;SDS011;10032;51.386;12.516;2023-08-12T09:09:36;3.17;;;2.78;;
19747;SDS011;10032;51.386;12.516;2023-08-12T09:12:03;4.72;;;2.80;;
19747;SDS011;10032;51.386;12.516;2023-08-12T09:14:31;4.30;;;3.20;;
19747;SDS011;10032;51.386;12.516;2023-08-12T09:16:56;3.85;;;2.97;;
19747;SDS011;10032;51.386;12.516;2023-08-12T09:19:22;3.70;;;2.83;;
19747;SDS011;10032;51.386;12.516;2023-08-12T09:21:54;3.00;;;2.70;;
19747;SDS011;10032;51.386;12.516;2023-08-12T09:24:25;4.07;;;3.05;;
19747;SDS011;10032;51.386;12.516;2023-08-12T09:26:52;3.15;;;2.88;;
19747;SDS011;10032;51.386;12.516;2023-08-12T09:29:21;3.40;;;2.72;;
19747;SDS011;10032;51.386;12.516;2023-08-12T09:32:09;2.80;;;2.55;;
19747;SDS011;10032;51.386;12.516;2023-08-12T09:34:48;3.78;;;3.17;;
19747;SDS011;10032;51.386;12.516;2023-08-12T09:37:16;3.38;;;3.08;;
19747;SDS011;10032;51.386;12.516;2023-08-12T09:39:42;5.30;;;2.78;;
19747;SDS011;10032;51.386;12.516;2023-08-12T09:42:08;3.10;;;2.80;;
19747;SDS011;10032;51.386;12.516;2023-08-12T09:44:35;3.17;;;2.95;;
19747;SDS011;10032;51.386;12.516;2023-08-12T09:47:01;4.72;;;2.50;;
19747;SDS011;10032;51.386;12.516;2023-08-12T09:49:28;3.85;;;2.75;;
19747;SDS011;10032;51.386;12.516;2023-08-12T09:51:55;3.17;;;2.75;;
19747;SDS011;10032;51.386;12.516;2023-08-12T09:54:21;3.28;;;2.75;;
19747;SDS011;10032;51.386;12.516;2023-08-12T09:56:47;3.45;;;3.20;;
19747;SDS011;10032;51.386;12.516;2023-08-12T09:59:14;3.92;;;2.78;;
19747;SDS011;10032;51.386;12.516;2023-08-12T10:01:47;5.22;;;3.03;;
19747;SDS011;10032;51.386;12.516;2023-08-12T10:04:14;3.00;;;2.78;;
19747;SDS011;10032;51.386;12.516;2023-08-12T10:06:44;3.10;;;2.80;;
19747;SDS011;10032;51.386;12.516;2023-08-12T10:09:10;3.58;;;2.67;;
19747;SDS011;10032;51.386;12.516;2023-08-12T10:11:36;3.08;;;2.85;;
19747;SDS011;10032;51.386;12.516;2023-08-12T10:14:05;3.05;;;2.75;;
19747;SDS011;10032;51.386;12.516;2023-08-12T10:16:31;3.10;;;2.80;;
19747;SDS011;10032;51.386;12.516;2023-08-12T10:18:58;3.10;;;2.80;;
19747;SDS011;10032;51.386;12.516;2023-08-12T10:21:25;3.17;;;2.83;;
19747;SDS011;10032;51.386;12.516;2023-08-12T10:23:52;2.88;;;2.53;;
19747;SDS011;10032;51.386;12.516;2023-08-12T10:26:18;3.33;;;3.03;;
19747;SDS011;10032;51.386;12.516;2023-08-12T10:28:44;3.42;;;2.88;;
19747;SDS011;10032;51.386;12.516;2023-08-12T10:31:11;3.10;;;2.80;;
19747;SDS011;10032;51.386;12.516;2023-08-12T10:33:40;2.70;;;2.50;;
19747;SDS011;10032;51.386;12.516;2023-08-12T10:36:06;3.22;;;2.92;;
19747;SDS011;10032;51.386;12.516;2023-08-12T10:38:32;2.75;;;2.55;;
19747;SDS011;10032;51.386;12.516;2023-08-12T10:41:17;3.25;;;2.95;;
19747;SDS011;10032;51.386;12.516;2023-08-12T10:46:40;3.53;;;2.70;;
19747;SDS011;10032;51.386;12.516;2023-08-12T10:49:06;4.18;;;2.63;;
19747;SDS011;10032;51.386;12.516;2023-08-12T10:54:19;2.70;;;2.50;;
19747;SDS011;10032;51.386;12.516;2023-08-12T11:02:16;2.83;;;2.63;;
19747;SDS011;10032;51.386;12.516;2023-08-12T11:04:55;2.85;;;2.65;;
19747;SDS011;10032;51.386;12.516;2023-08-12T11:07:29;3.72;;;3.17;;
19747;SDS011;10032;51.386;12.516;2023-08-12T11:10:21;3.97;;;3.35;;
19747;SDS011;10032;51.386;12.516;2023-08-12T11:15:28;3.45;;;3.15;;
19747;SDS011;10032;51.386;12.516;2023-08-12T11:17:54;4.65;;;2.78;;
19747;SDS011;10032;51.386;12.516;2023-08-12T11:20:19;3.30;;;3.00;;
19747;SDS011;10032;51.386;12.516;2023-08-12T11:22:45;3.55;;;2.75;;
19747;SDS011;10032;51.386;12.516;2023-08-12T11:25:12;3.13;;;2.83;;
19747;SDS011;10032;51.386;12.516;2023-08-12T11:27:39;3.63;;;2.85;;
19747;SDS011;10032;51.386;12.516;2023-08-12T11:30:08;2.88;;;2.53;;
19747;SDS011;10032;51.386;12.516;2023-08-12T11:32:35;3.30;;;2.70;;
19747;SDS011;10032;51.386;12.516;2023-08-12T11:35:02;3.20;;;2.90;;
19747;SDS011;10032;51.386;12.516;2023-08-12T11:37:29;3.53;;;3.03;;
19747;SDS011;10032;51.386;12.516;2023-08-12T11:39:54;3.90;;;2.90;;
19747;SDS011;10032;51.386;12.516;2023-08-12T11:42:20;2.80;;;2.60;;
19747;SDS011;10032;51.386;12.516;2023-08-12T11:44:45;4.00;;;2.70;;
19747;SDS011;10032;51.386;12.516;2023-08-12T11:47:10;3.20;;;2.90;;
19747;SDS011;10032;51.386;12.516;2023-08-12T11:49:36;3.00;;;2.80;;
19747;SDS011;10032;51.386;12.516;2023-08-12T11:52:01;3.20;;;2.70;;
19747;SDS011;10032;51.386;12.516;2023-08-12T11:54:28;5.82;;;3.00;;
19747;SDS011;10032;51.386;12.516;2023-08-12T11:56:53;3.25;;;2.85;;
19747;SDS011;10032;51.386;12.516;2023-08-12T11:59:23;3.17;;;2.88;;
19747;SDS011;10032;51.386;12.516;2023-08-12T12:01:48;2.50;;;2.30;;
19747;SDS011;10032;51.386;12.516;2023-08-12T12:04:15;2.63;;;2.42;;
19747;SDS011;10032;51.386;12.516;2023-08-12T12:06:41;2.45;;;2.25;;
19747;SDS011;10032;51.386;12.516;2023-08-12T12:09:07;2.47;;;2.28;;
19747;SDS011;10032;51.386;12.516;2023-08-12T12:11:37;2.63;;;2.42;;
19747;SDS011;10032;51.386;12.516;2023-08-12T12:14:04;2.70;;;2.50;;
19747;SDS011;10032;51.386;12.516;2023-08-12T12:16:40;2.25;;;2.10;;
19747;SDS011;10032;51.386;12.516;2023-08-12T12:19:15;2.30;;;2.03;;
19747;SDS011;10032;51.386;12.516;2023-08-12T12:21:48;1.92;;;1.83;;
19747;SDS011;10032;51.386;12.516;2023-08-12T12:24:15;2.10;;;2.00;;
19747;SDS011;10032;51.386;12.516;2023-08-12T12:26:41;1.92;;;1.83;;
19747;SDS011;10032;51.386;12.516;2023-08-12T12:29:07;1.92;;;1.83;;
19747;SDS011;10032;51.386;12.516;2023-08-12T12:31:33;1.77;;;1.58;;
19747;SDS011;10032;51.386;12.516;2023-08-12T12:34:02;1.70;;;1.60;;
19747;SDS011;10032;51.386;12.516;2023-08-12T12:36:29;2.08;;;1.90;;
19747;SDS011;10032;51.386;12.516;2023-08-12T12:38:59;1.90;;;1.80;;
19747;SDS011;10032;51.386;12.516;2023-08-12T12:41:24;3.40;;;1.70;;
19747;SDS011;10032;51.386;12.516;2023-08-12T12:43:50;5.05;;;1.80;;
19747;SDS011;10032;51.386;12.516;2023-08-12T12:46:15;1.90;;;1.80;;
19747;SDS011;10032;51.386;12.516;2023-08-12T12:48:41;2.35;;;2.17;;
19747;SDS011;10032;51.386;12.516;2023-08-12T12:51:07;1.40;;;1.30;;
19747;SDS011;10032;51.386;12.516;2023-08-12T12:53:33;2.72;;;1.73;;
19747;SDS011;10032;51.386;12.516;2023-08-12T12:55:58;4.60;;;1.77;;
19747;SDS011;10032;51.386;12.516;2023-08-12T12:58:28;2.05;;;1.95;;
19747;SDS011;10032;51.386;12.516;2023-08-12T13:00:58;1.67;;;1.58;;
19747;SDS011;10032;51.386;12.516;2023-08-12T13:03:23;1.83;;;1.73;;
19747;SDS011;10032;51.386;12.516;2023-08-12T13:05:49;2.13;;;1.80;;
19747;SDS011;10032;51.386;12.516;2023-08-12T13:08:15;2.20;;;1.50;;
19747;SDS011;10032;51.386;12.516;2023-08-12T13:10:40;1.70;;;1.60;;
19747;SDS011;10032;51.386;12.516;2023-08-12T13:13:05;3.20;;;1.70;;
19747;SDS011;10032;51.386;12.516;2023-08-12T13:15:31;1.60;;;1.50;;
19747;SDS011;10032;51.386;12.516;2023-08-12T13:17:56;5.22;;;1.88;;
19747;SDS011;10032;51.386;12.516;2023-08-12T13:20:22;1.45;;;1.38;;
19747;SDS011;10032;51.386;12.516;2023-08-12T13:22:47;1.80;;;1.70;;
19747;SDS011;10032;51.386;12.516;2023-08-12T13:25:13;2.22;;;1.50;;
19747;SDS011;10032;51.386;12.516;2023-08-12T13:27:38;1.90;;;1.80;;
19747;SDS011;10032;51.386;12.516;2023-08-12T13:30:04;2.00;;;1.80;;
19747;SDS011;10032;51.386;12.516;2023-08-12T13:32:31;1.90;;;1.80;;
19747;SDS011;10032;51.386;12.516;2023-08-12T13:34:56;2.45;;;1.80;;
19747;SDS011;10032;51.386;12.516;2023-08-12T13:37:21;4.28;;;2.10;;
19747;SDS011;10032;51.386;12.516;2023-08-12T13:39:47;2.20;;;2.00;;
19747;SDS011;10032;51.386;12.516;2023-08-12T13:42:12;3.08;;;1.80;;
19747;SDS011;10032;51.386;12.516;2023-08-12T13:44:38;3.08;;;2.28;;
19747;SDS011;10032;51.386;12.516;2023-08-12T13:47:03;2.35;;;1.95;;
19747;SDS011;10032;51.386;12.516;2023-08-12T13:49:29;2.00;;;1.80;;
19747;SDS011;10032;51.386;12.516;2023-08-12T13:51:54;2.20;;;1.77;;
19747;SDS011;10032;51.386;12.516;2023-08-12T13:54:19;5.82;;;1.92;;
19747;SDS011;10032;51.386;12.516;2023-08-12T13:56:45;2.25;;;2.00;;
19747;SDS011;10032;51.386;12.516;2023-08-12T13:59:10;2.13;;;2.00;;
19747;SDS011;10032;51.386;12.516;2023-08-12T14:01:36;2.20;;;1.98;;
19747;SDS011;10032;51.386;12.516;2023-08-12T14:04:01;1.85;;;1.75;;
19747;SDS011;10032;51.386;12.516;2023-08-12T14:06:26;1.98;;;1.88;;
19747;SDS011;10032;51.386;12.516;2023-08-12T14:08:52;1.95;;;1.80;;
19747;SDS011;10032;51.386;12.516;2023-08-12T14:11:17;1.90;;;1.77;;
19747;SDS011;10032;51.386;12.516;2023-08-12T14:13:43;2.40;;;2.20;;
19747;SDS011;10032;51.386;12.516;2023-08-12T14:16:08;2.28;;;1.88;;
19747;SDS011;10032;51.386;12.516;2023-08-12T14:18:34;2.08;;;1.88;;
19747;SDS011;10032;51.386;12.516;2023-08-12T14:20:59;1.88;;;1.77;;
19747;SDS011;10032;51.386;12.516;2023-08-12T14:23:24;2.60;;;1.88;;
19747;SDS011;10032;51.386;12.516;2023-08-12T14:25:50;1.70;;;1.60;;
19747;SDS011;10032;51.386;12.516;2023-08-12T14:28:15;1.98;;;1.88;;
19747;SDS011;10032;51.386;12.516;2023-08-12T14:30:41;1.77;;;1.67;;
19747;SDS011;10032;51.386;12.516;2023-08-12T14:33:06;2.00;;;1.80;;
19747;SDS011;10032;51.386;12.516;2023-08-12T14:35:33;2.10;;;1.90;;
19747;SDS011;10032;51.386;12.516;2023-08-12T14:37:59;1.67;;;1.58;;
19747;SDS011;10032;51.386;12.516;2023-08-12T14:40:24;1.92;;;1.63;;
19747;SDS011;10032;51.386;12.516;2023-08-12T14:42:50;1.65;;;1.55;;
19747;SDS011;10032;51.386;12.516;2023-08-12T14:45:15;2.33;;;2.13;;
19747;SDS011;10032;51.386;12.516;2023-08-12T14:47:40;2.15;;;2.03;;